createdAt,value
2023-04-29T00:01:21.181Z,11.30
2023-04-29T00:03:48.338Z,11.30
2023-04-29T00:06:16.015Z,11.20
2023-04-29T00:08:43.005Z,11.20
2023-04-29T00:11:11.017Z,11.20
2023-04-29T00:13:40.892Z,11.20
2023-04-29T00:16:10.437Z,11.10
2023-04-29T00:18:37.974Z,11.10
2023-04-29T00:21:08.009Z,11.10
2023-04-29T00:23:35.091Z,11.10
2023-04-29T00:26:02.202Z,11.10
2023-04-29T00:28:29.262Z,11.10
2023-04-29T00:30:56.443Z,11.10
2023-04-29T00:33:23.583Z,11.10
2023-04-29T00:35:51.051Z,11.10
2023-04-29T00:38:17.956Z,11.10
2023-04-29T00:40:45.471Z,11.10
2023-04-29T00:43:13.070Z,11.10
2023-04-29T00:45:40.445Z,11.10
2023-04-29T00:48:07.910Z,11.10
2023-04-29T00:50:36.612Z,11.10
2023-04-29T00:53:04.122Z,11.10
2023-04-29T00:55:33.283Z,11.10
2023-04-29T00:58:00.712Z,11.00
2023-04-29T01:00:28.533Z,11.00
2023-04-29T01:02:57.115Z,11.00
2023-04-29T01:05:24.574Z,11.00
2023-04-29T01:08:27.142Z,10.90
2023-04-29T01:11:08.003Z,10.80
2023-04-29T01:13:50.724Z,10.70
2023-04-29T01:16:44.577Z,10.50
2023-04-29T01:19:44.157Z,10.40
2023-04-29T01:22:11.604Z,10.30
2023-04-29T01:24:39.859Z,10.20
2023-04-29T01:27:36.701Z,10.40
2023-04-29T01:30:12.813Z,10.10
2023-04-29T01:33:16.016Z,10.10
2023-04-29T01:36:19.743Z,10.10
2023-04-29T01:39:14.639Z,10.00
2023-04-29T01:41:57.440Z,10.00
2023-04-29T01:44:28.986Z,10.00
2023-04-29T01:46:56.953Z,10.00
2023-04-29T01:49:30.241Z,10.00
2023-04-29T01:51:57.113Z,10.00
2023-04-29T01:54:24.188Z,10.10
2023-04-29T01:56:52.359Z,10.10
2023-04-29T01:59:19.293Z,10.00
2023-04-29T02:01:46.165Z,10.00
2023-04-29T02:04:13.278Z,10.10
2023-04-29T02:06:40.136Z,10.00
2023-04-29T02:09:07.072Z,10.00
2023-04-29T02:11:33.985Z,10.00
2023-04-29T02:14:00.828Z,10.00
2023-04-29T02:16:27.851Z,10.00
2023-04-29T02:18:54.736Z,10.00
2023-04-29T02:21:21.640Z,9.90
2023-04-29T02:23:48.574Z,10.00
2023-04-29T02:26:15.652Z,10.00
2023-04-29T02:28:42.842Z,10.00
2023-04-29T02:31:09.681Z,10.10
2023-04-29T02:33:36.584Z,10.00
2023-04-29T02:36:03.834Z,10.00
2023-04-29T02:38:30.916Z,10.00
2023-04-29T02:40:58.177Z,10.00
2023-04-29T02:43:25.156Z,9.90
2023-04-29T02:45:52.416Z,9.90
2023-04-29T02:48:19.364Z,9.90
2023-04-29T02:50:46.684Z,9.90
2023-04-29T02:53:13.785Z,9.80
2023-04-29T02:55:40.754Z,9.70
2023-04-29T02:58:08.135Z,9.90
2023-04-29T03:00:35.161Z,9.70
2023-04-29T03:03:02.207Z,9.70
2023-04-29T03:05:29.130Z,9.70
2023-04-29T03:07:56.212Z,9.70
2023-04-29T03:10:23.213Z,9.70
2023-04-29T03:12:50.150Z,9.70
2023-04-29T03:15:17.397Z,9.70
2023-04-29T03:17:46.392Z,9.60
2023-04-29T03:20:13.707Z,9.60
2023-04-29T03:22:40.595Z,9.60
2023-04-29T03:25:08.192Z,9.50
2023-04-29T03:27:35.193Z,9.50
2023-04-29T03:30:04.057Z,9.40
2023-04-29T03:32:31.011Z,9.40
2023-04-29T03:34:57.966Z,9.40
2023-04-29T03:37:24.828Z,9.40
2023-04-29T03:39:51.913Z,9.40
2023-04-29T03:42:18.900Z,9.40
2023-04-29T03:44:45.781Z,9.40
2023-04-29T03:47:13.913Z,9.50
2023-04-29T03:49:41.205Z,9.40
2023-04-29T03:52:08.129Z,9.40
2023-04-29T03:54:35.160Z,9.40
2023-04-29T03:57:03.649Z,9.40
2023-04-29T03:59:30.701Z,9.40
2023-04-29T04:01:58.551Z,9.40
2023-04-29T04:04:26.361Z,9.40
2023-04-29T04:06:53.424Z,9.40
2023-04-29T04:09:20.518Z,9.40
2023-04-29T04:11:47.476Z,9.30
2023-04-29T04:14:14.408Z,9.30
2023-04-29T04:16:41.432Z,9.30
2023-04-29T04:19:08.998Z,9.30
2023-04-29T04:21:35.933Z,9.30
2023-04-29T04:24:03.144Z,9.40
2023-04-29T04:26:30.021Z,9.30
2023-04-29T04:28:56.950Z,9.30
2023-04-29T04:31:23.921Z,9.30
2023-04-29T04:33:51.091Z,9.30
2023-04-29T04:36:17.987Z,9.60
2023-04-29T04:38:44.767Z,9.30
2023-04-29T04:41:11.745Z,9.30
2023-04-29T04:43:39.823Z,9.30
2023-04-29T04:46:15.166Z,9.30
2023-04-29T04:48:42.641Z,9.30
2023-04-29T04:51:11.396Z,9.30
2023-04-29T04:53:39.906Z,9.40
2023-04-29T04:56:07.557Z,9.50
2023-04-29T04:58:34.697Z,9.40
2023-04-29T05:01:01.569Z,9.40
2023-04-29T05:03:28.729Z,9.40
2023-04-29T05:05:56.893Z,9.40
2023-04-29T05:08:24.672Z,9.40
2023-04-29T05:10:52.026Z,9.40
2023-04-29T05:13:19.561Z,9.30
2023-04-29T05:15:46.692Z,9.40
2023-04-29T05:18:13.724Z,9.40
2023-04-29T05:20:40.554Z,9.60
2023-04-29T05:23:07.522Z,9.30
2023-04-29T05:25:35.880Z,9.30
2023-04-29T05:28:04.630Z,9.30
2023-04-29T05:30:31.487Z,9.20
2023-04-29T05:32:58.865Z,9.20
2023-04-29T05:35:26.448Z,9.20
2023-04-29T05:37:53.294Z,9.20
2023-04-29T05:40:20.344Z,9.20
2023-04-29T05:42:47.513Z,9.20
2023-04-29T05:45:14.499Z,9.20
2023-04-29T05:47:41.457Z,9.20
2023-04-29T05:50:08.656Z,9.20
2023-04-29T05:52:35.507Z,9.20
2023-04-29T05:55:02.422Z,9.20
2023-04-29T05:57:29.323Z,9.20
2023-04-29T05:59:56.358Z,9.20
2023-04-29T06:02:23.481Z,9.20
2023-04-29T06:04:50.702Z,9.20
2023-04-29T06:07:20.212Z,9.20
2023-04-29T06:09:47.350Z,9.20
2023-04-29T06:12:14.299Z,9.20
2023-04-29T06:14:41.246Z,9.10
2023-04-29T06:17:08.416Z,9.20
2023-04-29T06:19:35.405Z,9.20
2023-04-29T06:22:02.264Z,9.30
2023-04-29T06:24:29.089Z,9.40
2023-04-29T06:26:56.001Z,9.40
2023-04-29T06:29:22.872Z,9.40
2023-04-29T06:31:49.726Z,9.50
2023-04-29T06:34:16.564Z,9.60
2023-04-29T06:36:43.809Z,9.60
2023-04-29T06:39:10.925Z,9.60
2023-04-29T06:41:37.943Z,9.60
2023-04-29T06:44:04.953Z,9.50
2023-04-29T06:46:31.981Z,9.50
2023-04-29T06:48:58.891Z,9.50
2023-04-29T06:51:25.732Z,9.50
2023-04-29T06:53:52.641Z,9.60
2023-04-29T06:56:19.502Z,9.60
2023-04-29T06:58:46.438Z,9.70
2023-04-29T07:01:13.315Z,9.70
2023-04-29T07:03:40.439Z,10.10
2023-04-29T07:06:07.642Z,10.00
2023-04-29T07:08:34.648Z,10.00
2023-04-29T07:11:01.591Z,10.00
2023-04-29T07:13:28.710Z,10.10
2023-04-29T07:15:55.795Z,10.10
2023-04-29T07:18:23.170Z,10.20
2023-04-29T07:20:52.027Z,10.20
2023-04-29T07:23:18.880Z,10.30
2023-04-29T07:25:45.819Z,10.20
2023-04-29T07:28:12.691Z,10.30
2023-04-29T07:30:39.708Z,10.30
2023-04-29T07:33:06.811Z,10.40
2023-04-29T07:35:34.211Z,10.40
2023-04-29T07:38:01.167Z,10.40
2023-04-29T07:40:28.722Z,10.40
2023-04-29T07:42:55.673Z,10.40
2023-04-29T07:45:22.831Z,10.40
2023-04-29T07:47:49.683Z,10.40
2023-04-29T07:50:16.613Z,10.40
2023-04-29T07:52:50.068Z,10.30
2023-04-29T07:55:17.408Z,10.30
2023-04-29T07:57:44.334Z,10.30
2023-04-29T08:00:12.225Z,10.20
2023-04-29T08:02:39.414Z,10.10
2023-04-29T08:05:07.135Z,10.10
2023-04-29T08:07:35.301Z,10.00
2023-04-29T08:10:02.245Z,9.90
2023-04-29T08:12:29.197Z,9.90
2023-04-29T08:14:56.004Z,9.90
2023-04-29T08:17:22.918Z,9.90
2023-04-29T08:19:49.836Z,9.90
2023-04-29T08:22:17.670Z,9.90
2023-04-29T08:24:45.214Z,9.90
2023-04-29T08:27:12.135Z,9.80
2023-04-29T08:29:39.539Z,9.80
2023-04-29T08:32:06.752Z,9.70
2023-04-29T08:34:36.146Z,9.70
2023-04-29T08:37:03.676Z,9.70
2023-04-29T08:39:31.698Z,9.70
2023-04-29T08:41:59.883Z,9.70
2023-04-29T08:44:27.600Z,9.70
2023-04-29T08:46:55.992Z,9.70
2023-04-29T08:49:23.140Z,9.80
2023-04-29T08:51:53.157Z,9.80
2023-04-29T08:54:20.045Z,9.80
2023-04-29T08:56:48.479Z,9.80
2023-04-29T08:59:18.101Z,10.00
2023-04-29T09:01:51.956Z,10.00
2023-04-29T09:04:56.143Z,9.90
2023-04-29T09:07:24.020Z,9.90
2023-04-29T09:09:56.532Z,9.80
2023-04-29T09:12:23.377Z,9.80
2023-04-29T09:14:50.540Z,9.80
2023-04-29T09:17:18.859Z,9.70
2023-04-29T09:19:45.909Z,9.80
2023-04-29T09:22:12.820Z,9.80
2023-04-29T09:24:40.009Z,10.00
2023-04-29T09:27:06.995Z,10.10
2023-04-29T09:29:36.493Z,10.30
2023-04-29T09:32:20.707Z,10.40
2023-04-29T09:34:47.577Z,10.40
2023-04-29T09:37:27.564Z,10.40
2023-04-29T09:39:54.833Z,10.40
2023-04-29T09:42:21.651Z,10.40
2023-04-29T09:44:48.571Z,10.30
2023-04-29T09:47:15.575Z,10.40
2023-04-29T09:49:46.054Z,10.40
2023-04-29T09:52:17.852Z,10.30
2023-04-29T09:54:45.506Z,10.30
2023-04-29T09:57:16.592Z,10.30
2023-04-29T09:59:44.036Z,10.20
2023-04-29T10:02:18.699Z,10.20
2023-04-29T10:04:48.676Z,10.10
2023-04-29T10:07:17.786Z,10.20
2023-04-29T10:09:47.563Z,10.20
2023-04-29T10:12:20.636Z,10.20
2023-04-29T10:15:34.456Z,10.40
2023-04-29T10:18:26.299Z,10.50
2023-04-29T10:20:57.350Z,10.60
2023-04-29T10:23:26.402Z,10.70
2023-04-29T10:25:57.526Z,10.80
2023-04-29T10:28:26.191Z,10.80
2023-04-29T10:30:56.090Z,10.80
2023-04-29T10:33:23.767Z,10.80
2023-04-29T10:35:54.036Z,10.90
2023-04-29T10:38:33.037Z,10.90
2023-04-29T10:41:08.658Z,10.90
2023-04-29T10:43:35.919Z,10.90
2023-04-29T10:46:23.793Z,11.00
2023-04-29T10:48:56.404Z,11.00
2023-04-29T10:51:34.221Z,11.10
2023-04-29T10:54:01.946Z,11.10
2023-04-29T10:56:40.006Z,11.10
2023-04-29T10:59:12.692Z,11.10
2023-04-29T11:01:53.575Z,11.10
2023-04-29T11:04:23.475Z,11.10
2023-04-29T11:06:59.141Z,11.10
2023-04-29T11:09:28.884Z,11.00
2023-04-29T11:11:55.648Z,11.00
2023-04-29T11:14:38.905Z,10.90
2023-04-29T11:17:10.797Z,10.90
2023-04-29T11:19:45.582Z,10.90
2023-04-29T11:22:23.331Z,11.00
2023-04-29T11:24:58.692Z,11.00
2023-04-29T11:27:31.448Z,11.00
2023-04-29T11:30:00.238Z,11.00
2023-04-29T11:32:37.161Z,11.00
2023-04-29T11:35:19.788Z,11.10
2023-04-29T11:37:47.496Z,11.10
2023-04-29T11:40:15.644Z,11.00
2023-04-29T11:42:49.763Z,11.00
2023-04-29T11:45:20.676Z,11.00
2023-04-29T11:47:49.332Z,11.10
2023-04-29T11:50:20.779Z,11.20
2023-04-29T11:52:50.405Z,11.30
2023-04-29T11:55:19.440Z,11.50
2023-04-29T11:57:51.040Z,11.60
2023-04-29T12:00:18.240Z,11.70
2023-04-29T12:02:47.201Z,11.80
2023-04-29T12:05:15.878Z,11.90
2023-04-29T12:07:43.806Z,11.90
2023-04-29T12:10:12.445Z,11.90
2023-04-29T12:12:46.687Z,12.00
2023-04-29T12:15:14.666Z,12.00
2023-04-29T12:17:42.938Z,12.00
2023-04-29T12:20:11.309Z,11.90
2023-04-29T12:22:38.799Z,11.90
2023-04-29T12:25:07.937Z,11.80
2023-04-29T12:27:37.076Z,11.80
2023-04-29T12:30:09.703Z,11.80
2023-04-29T12:32:38.218Z,11.90
2023-04-29T12:35:05.771Z,11.90
2023-04-29T12:37:33.954Z,12.00
2023-04-29T12:40:00.837Z,12.20
2023-04-29T12:42:34.264Z,12.40
2023-04-29T12:45:01.277Z,12.60
2023-04-29T12:47:37.248Z,12.80
2023-04-29T12:50:06.952Z,12.90
2023-04-29T12:52:35.957Z,12.80
2023-04-29T12:55:04.674Z,12.70
2023-04-29T12:57:31.742Z,12.70
2023-04-29T12:59:58.612Z,12.80
2023-04-29T13:02:26.404Z,12.90
2023-04-29T13:04:53.796Z,13.10
2023-04-29T13:07:21.081Z,13.20
2023-04-29T13:09:47.972Z,13.20
2023-04-29T13:12:14.875Z,13.10
2023-04-29T13:14:41.788Z,13.00
2023-04-29T13:17:08.798Z,12.90
2023-04-29T13:19:50.402Z,12.70
2023-04-29T13:22:18.841Z,12.70
2023-04-29T13:24:46.614Z,12.40
2023-04-29T13:27:13.498Z,12.30
2023-04-29T13:29:40.454Z,12.10
2023-04-29T13:32:08.381Z,12.00
2023-04-29T13:34:35.937Z,11.90
2023-04-29T13:37:02.933Z,11.90
2023-04-29T13:39:29.824Z,11.80
2023-04-29T13:41:59.260Z,11.90
2023-04-29T13:44:34.174Z,12.00
2023-04-29T13:47:13.633Z,12.10
2023-04-29T13:50:19.662Z,12.20
2023-04-29T13:55:49.444Z,12.20
2023-04-29T14:05:25.378Z,12.10
2023-04-29T14:07:52.534Z,12.20
2023-04-29T14:10:19.461Z,12.40
2023-04-29T14:12:46.404Z,12.30
2023-04-29T14:15:13.515Z,12.20
2023-04-29T14:17:40.670Z,12.20
2023-04-29T14:20:08.625Z,12.20
2023-04-29T14:22:36.075Z,12.20
2023-04-29T14:25:03.080Z,12.20
2023-04-29T14:27:29.965Z,12.20
2023-04-29T14:29:56.869Z,12.20
2023-04-29T14:32:23.772Z,12.10
2023-04-29T14:34:50.836Z,12.30
2023-04-29T14:37:17.810Z,12.10
2023-04-29T14:39:44.668Z,12.20
2023-04-29T14:42:12.937Z,12.20
2023-04-29T14:44:39.769Z,12.30
2023-04-29T14:47:06.588Z,12.40
2023-04-29T14:49:33.498Z,12.50
2023-04-29T14:52:00.407Z,12.50
2023-04-29T14:54:27.912Z,12.50
2023-04-29T14:56:54.770Z,12.60
2023-04-29T14:59:21.748Z,12.60
2023-04-29T15:01:48.825Z,12.60
2023-04-29T15:04:16.085Z,12.60
2023-04-29T15:06:43.152Z,12.70
2023-04-29T15:09:10.170Z,12.70
2023-04-29T15:11:37.087Z,12.80
2023-04-29T15:14:04.082Z,12.80
2023-04-29T15:16:31.680Z,12.70
2023-04-29T15:18:58.892Z,12.70
2023-04-29T15:21:26.827Z,12.70
2023-04-29T15:23:53.913Z,12.70
2023-04-29T15:26:21.775Z,12.70
2023-04-29T15:28:48.812Z,12.70
2023-04-29T15:31:15.777Z,12.70
2023-04-29T15:33:42.710Z,12.70
2023-04-29T15:36:09.658Z,12.60
2023-04-29T15:38:36.507Z,12.70
2023-04-29T15:41:03.984Z,12.70
2023-04-29T15:43:32.627Z,12.80
2023-04-29T15:45:59.980Z,12.80
2023-04-29T15:48:27.255Z,12.80
2023-04-29T15:50:54.127Z,12.80
2023-04-29T15:53:21.151Z,12.70
2023-04-29T15:55:48.010Z,12.60
2023-04-29T15:58:14.888Z,12.50
2023-04-29T16:00:41.808Z,12.30
2023-04-29T16:03:08.874Z,12.20
2023-04-29T16:05:37.029Z,12.10
2023-04-29T16:08:04.456Z,12.10
2023-04-29T16:10:31.426Z,12.00
2023-04-29T16:12:58.411Z,11.90
2023-04-29T16:15:25.367Z,12.00
2023-04-29T16:17:52.696Z,11.90
2023-04-29T16:20:20.676Z,11.80
2023-04-29T16:22:47.536Z,11.70
2023-04-29T16:25:14.516Z,11.80
2023-04-29T16:27:41.654Z,11.70
2023-04-29T16:30:09.248Z,11.70
2023-04-29T16:32:36.388Z,11.70
2023-04-29T16:35:03.354Z,11.70
2023-04-29T16:37:30.572Z,11.80
2023-04-29T16:39:58.124Z,11.80
2023-04-29T16:42:26.014Z,11.90
2023-04-29T16:44:52.919Z,11.90
2023-04-29T16:47:20.346Z,12.00
2023-04-29T16:49:47.381Z,12.10
2023-04-29T16:52:14.497Z,12.10
2023-04-29T16:54:41.612Z,12.20
2023-04-29T16:57:08.627Z,12.10
2023-04-29T16:59:35.758Z,12.10
2023-04-29T17:02:03.066Z,12.10
2023-04-29T17:04:31.601Z,12.10
2023-04-29T17:07:01.308Z,12.10
2023-04-29T17:09:28.737Z,12.10
2023-04-29T17:11:55.883Z,12.00
2023-04-29T17:14:22.956Z,12.20
2023-04-29T17:16:50.099Z,12.00
2023-04-29T17:19:17.934Z,12.00
2023-04-29T17:21:44.914Z,11.90
2023-04-29T17:24:11.858Z,11.90
2023-04-29T17:26:38.770Z,11.90
2023-04-29T17:29:05.660Z,11.90
2023-04-29T17:31:45.268Z,11.90
2023-04-29T17:34:19.119Z,11.90
2023-04-29T17:36:47.440Z,11.90
2023-04-29T17:39:14.540Z,11.90
2023-04-29T17:41:41.944Z,11.90
2023-04-29T17:44:09.385Z,11.90
2023-04-29T17:46:37.173Z,11.90
2023-04-29T17:49:04.926Z,11.90
2023-04-29T17:51:33.113Z,11.90
2023-04-29T17:54:01.182Z,11.90
2023-04-29T17:56:28.495Z,11.90
2023-04-29T17:58:55.408Z,11.90
2023-04-29T18:01:22.485Z,11.80
2023-04-29T18:03:51.319Z,11.80
2023-04-29T18:06:18.783Z,11.80
2023-04-29T18:08:46.427Z,11.80
2023-04-29T18:11:13.455Z,11.80
2023-04-29T18:13:41.447Z,11.80
2023-04-29T18:16:09.506Z,11.70
2023-04-29T18:18:37.401Z,11.70
2023-04-29T18:21:05.104Z,11.70
2023-04-29T18:23:32.195Z,11.60
2023-04-29T18:25:59.149Z,11.50
2023-04-29T18:28:26.195Z,11.50
2023-04-29T18:30:53.122Z,11.50
2023-04-29T18:33:20.236Z,11.40
2023-04-29T18:35:47.324Z,11.40
2023-04-29T18:38:17.176Z,11.40
2023-04-29T18:40:44.749Z,11.30
2023-04-29T18:43:15.288Z,11.30
2023-04-29T18:45:42.225Z,11.20
2023-04-29T18:48:09.887Z,11.20
2023-04-29T18:50:36.847Z,11.20
2023-04-29T18:53:03.816Z,11.10
2023-04-29T18:55:30.765Z,11.10
2023-04-29T18:57:57.647Z,11.10
2023-04-29T19:00:24.767Z,11.00
2023-04-29T19:02:51.739Z,10.90
2023-04-29T19:05:19.278Z,10.80
2023-04-29T19:07:46.165Z,10.80
2023-04-29T19:10:13.334Z,10.70
2023-04-29T19:12:40.378Z,10.70
2023-04-29T19:15:08.354Z,10.60
2023-04-29T19:17:36.102Z,10.60
2023-04-29T19:20:03.445Z,10.40
2023-04-29T19:22:31.406Z,10.40
2023-04-29T19:24:58.333Z,10.30
2023-04-29T19:27:25.381Z,10.30
2023-04-29T19:29:52.567Z,10.20
2023-04-29T19:32:22.454Z,10.10
2023-04-29T19:34:49.384Z,10.00
2023-04-29T19:37:16.416Z,9.90
2023-04-29T19:39:43.268Z,9.80
2023-04-29T19:42:10.837Z,9.80
2023-04-29T19:44:37.801Z,9.70
2023-04-29T19:47:04.778Z,9.70
2023-04-29T19:49:31.954Z,9.70
2023-04-29T19:51:58.829Z,9.60
2023-04-29T19:54:25.723Z,9.60
2023-04-29T19:56:52.792Z,9.70
2023-04-29T19:59:19.578Z,9.50
2023-04-29T20:01:47.012Z,9.50
2023-04-29T20:04:14.187Z,9.50
2023-04-29T20:06:41.416Z,9.60
2023-04-29T20:09:09.346Z,9.50
2023-04-29T20:11:36.657Z,9.60
2023-04-29T20:14:03.777Z,9.50
2023-04-29T20:16:32.152Z,9.40
2023-04-29T20:18:59.158Z,9.40
2023-04-29T20:21:26.233Z,9.40
2023-04-29T20:23:53.545Z,9.50
2023-04-29T20:26:20.482Z,9.50
2023-04-29T20:28:47.554Z,9.50
2023-04-29T20:31:14.507Z,9.50
2023-04-29T20:33:41.636Z,9.50
2023-04-29T20:36:08.527Z,9.50
2023-04-29T20:38:36.178Z,9.60
2023-04-29T20:41:05.838Z,9.50
2023-04-29T20:43:32.807Z,9.50
2023-04-29T20:46:00.555Z,9.50
2023-04-29T20:48:28.353Z,9.50
2023-04-29T20:50:55.508Z,9.50
2023-04-29T20:53:22.442Z,9.50
2023-04-29T20:55:49.388Z,9.50
2023-04-29T20:58:16.437Z,9.40
2023-04-29T21:00:43.493Z,9.40
2023-04-29T21:03:10.781Z,9.40
2023-04-29T21:05:37.712Z,9.40
2023-04-29T21:08:04.924Z,9.40
2023-04-29T21:10:31.996Z,9.40
2023-04-29T21:12:58.873Z,9.40
2023-04-29T21:15:26.957Z,9.40
2023-04-29T21:17:53.918Z,9.40
2023-04-29T21:20:21.399Z,9.40
2023-04-29T21:22:48.270Z,9.40
2023-04-29T21:25:15.162Z,9.40
2023-04-29T21:27:42.011Z,9.40
2023-04-29T21:30:09.570Z,9.40
2023-04-29T21:32:36.671Z,9.40
2023-04-29T21:35:03.719Z,9.40
2023-04-29T21:37:30.927Z,9.40
2023-04-29T21:40:00.262Z,9.40
2023-04-29T21:42:27.858Z,9.40
2023-04-29T21:44:58.541Z,9.30
2023-04-29T21:47:25.961Z,9.40
2023-04-29T21:49:54.176Z,9.30
2023-04-29T21:52:21.244Z,9.20
2023-04-29T21:54:48.139Z,9.20
2023-04-29T21:57:15.086Z,9.20
2023-04-29T21:59:41.894Z,9.10
2023-04-29T22:02:22.194Z,9.10
2023-04-29T22:04:51.361Z,9.00
2023-04-29T22:07:22.811Z,8.90
2023-04-29T22:09:49.733Z,8.80
2023-04-29T22:12:20.496Z,8.70
2023-04-29T22:14:47.651Z,8.60
2023-04-29T22:17:14.771Z,8.50
2023-04-29T22:19:41.620Z,8.30
2023-04-29T22:22:08.936Z,8.30
2023-04-29T22:24:35.836Z,8.10
2023-04-29T22:27:03.521Z,8.10
2023-04-29T22:29:30.331Z,7.90
2023-04-29T22:31:57.266Z,7.80
2023-04-29T22:34:24.139Z,7.80
2023-04-29T22:36:50.995Z,7.60
2023-04-29T22:39:17.938Z,7.60
2023-04-29T22:41:44.815Z,7.50
2023-04-29T22:44:11.865Z,7.40
2023-04-29T22:46:38.742Z,7.30
2023-04-29T22:49:05.579Z,7.20
2023-04-29T22:51:32.688Z,7.10
2023-04-29T22:53:59.559Z,7.00
2023-04-29T22:56:28.530Z,6.90
2023-04-29T22:58:55.967Z,6.80
2023-04-29T23:01:22.929Z,6.70
2023-04-29T23:03:49.883Z,6.60
2023-04-29T23:06:16.768Z,6.50
2023-04-29T23:08:44.612Z,6.40
2023-04-29T23:11:12.044Z,6.30
2023-04-29T23:13:39.427Z,6.30
2023-04-29T23:16:10.031Z,6.30
2023-04-29T23:18:37.727Z,6.20
2023-04-29T23:21:05.106Z,6.20
2023-04-29T23:23:31.919Z,6.10
2023-04-29T23:25:58.840Z,6.10
2023-04-29T23:28:25.917Z,6.10
2023-04-29T23:30:52.858Z,6.10
2023-04-29T23:33:19.786Z,6.00
2023-04-29T23:35:54.453Z,5.80
2023-04-29T23:38:21.421Z,5.80
2023-04-29T23:40:48.483Z,5.70
2023-04-29T23:43:15.446Z,5.60
2023-04-29T23:45:45.891Z,5.60
2023-04-29T23:48:13.199Z,5.50
2023-04-29T23:50:40.123Z,5.50
2023-04-29T23:53:07.048Z,5.50
2023-04-29T23:55:34.921Z,5.50
2023-04-29T23:58:01.864Z,5.40
